sensor_id;sensor_type;location;lat;lon;timestamp;temperature;humidity
26081;DHT22;13991;51.174;4.438;2023-11-19T00:00:00;14.40;99.90
26081;DHT22;13991;51.174;4.438;2023-11-19T00:02:26;14.50;99.90
26081;DHT22;13991;51.174;4.438;2023-11-19T00:04:52;14.50;99.90
26081;DHT22;13991;51.174;4.438;2023-11-19T00:07:18;14.60;99.90
26081;DHT22;13991;51.174;4.438;2023-11-19T00:09:44;14.50;99.90
26081;DHT22;13991;51.174;4.438;2023-11-19T00:12:10;14.50;99.90
26081;DHT22;13991;51.174;4.438;2023-11-19T00:14:36;14.50;99.90
26081;DHT22;13991;51.174;4.438;2023-11-19T00:17:01;14.50;99.90
26081;DHT22;13991;51.174;4.438;2023-11-19T00:19:27;14.50;99.90
26081;DHT22;13991;51.174;4.438;2023-11-19T00:21:53;14.60;99.90
26081;DHT22;13991;51.174;4.438;2023-11-19T00:24:18;14.50;99.90
26081;DHT22;13991;51.174;4.438;2023-11-19T00:26:45;14.50;99.90
26081;DHT22;13991;51.174;4.438;2023-11-19T00:29:12;14.60;99.90
26081;DHT22;13991;51.174;4.438;2023-11-19T00:31:39;14.50;99.90
26081;DHT22;13991;51.174;4.438;2023-11-19T00:34:05;14.50;99.90
26081;DHT22;13991;51.174;4.438;2023-11-19T00:36:31;14.50;99.90
26081;DHT22;13991;51.174;4.438;2023-11-19T00:38:57;14.30;99.90
26081;DHT22;13991;51.174;4.438;2023-11-19T00:41:23;14.50;99.90
26081;DHT22;13991;51.174;4.438;2023-11-19T00:43:49;14.40;99.90
26081;DHT22;13991;51.174;4.438;2023-11-19T00:46:14;14.40;99.90
26081;DHT22;13991;51.174;4.438;2023-11-19T00:48:40;14.50;99.90
26081;DHT22;13991;51.174;4.438;2023-11-19T00:51:06;14.40;99.90
26081;DHT22;13991;51.174;4.438;2023-11-19T00:53:32;14.40;99.90
26081;DHT22;13991;51.174;4.438;2023-11-19T00:55:59;14.40;99.90
26081;DHT22;13991;51.174;4.438;2023-11-19T00:58:25;14.40;99.90
26081;DHT22;13991;51.174;4.438;2023-11-19T01:00:51;14.40;99.90
26081;DHT22;13991;51.174;4.438;2023-11-19T01:03:16;14.50;99.90
26081;DHT22;13991;51.174;4.438;2023-11-19T01:05:42;14.60;99.90
26081;DHT22;13991;51.174;4.438;2023-11-19T01:08:09;14.60;99.90
26081;DHT22;13991;51.174;4.438;2023-11-19T01:10:36;14.60;99.90
26081;DHT22;13991;51.174;4.438;2023-11-19T01:13:02;14.60;99.90
26081;DHT22;13991;51.174;4.438;2023-11-19T01:15:31;14.50;99.90
26081;DHT22;13991;51.174;4.438;2023-11-19T01:17:57;14.50;99.90
26081;DHT22;13991;51.174;4.438;2023-11-19T01:20:22;14.40;99.90
26081;DHT22;13991;51.174;4.438;2023-11-19T01:22:49;14.40;99.90
26081;DHT22;13991;51.174;4.438;2023-11-19T01:25:15;14.20;99.90
26081;DHT22;13991;51.174;4.438;2023-11-19T01:27:41;14.20;99.90
26081;DHT22;13991;51.174;4.438;2023-11-19T01:30:08;14.20;99.90
26081;DHT22;13991;51.174;4.438;2023-11-19T01:32:35;14.20;99.90
26081;DHT22;13991;51.174;4.438;2023-11-19T01:35:03;14.10;99.90
26081;DHT22;13991;51.174;4.438;2023-11-19T01:37:28;14.10;99.90
26081;DHT22;13991;51.174;4.438;2023-11-19T01:39:54;14.20;99.90
26081;DHT22;13991;51.174;4.438;2023-11-19T01:42:20;14.20;99.90
26081;DHT22;13991;51.174;4.438;2023-11-19T01:45:06;14.10;99.90
26081;DHT22;13991;51.174;4.438;2023-11-19T01:47:33;14.20;99.90
26081;DHT22;13991;51.174;4.438;2023-11-19T01:49:59;14.10;99.90
26081;DHT22;13991;51.174;4.438;2023-11-19T01:52:25;14.20;99.90
26081;DHT22;13991;51.174;4.438;2023-11-19T01:54:53;14.20;99.90
26081;DHT22;13991;51.174;4.438;2023-11-19T01:57:21;14.00;99.90
26081;DHT22;13991;51.174;4.438;2023-11-19T01:59:49;14.00;99.90
26081;DHT22;13991;51.174;4.438;2023-11-19T02:02:15;14.10;99.90
26081;DHT22;13991;51.174;4.438;2023-11-19T02:04:41;14.10;99.90
26081;DHT22;13991;51.174;4.438;2023-11-19T02:07:07;14.10;99.90
26081;DHT22;13991;51.174;4.438;2023-11-19T02:09:34;14.10;99.90
26081;DHT22;13991;51.174;4.438;2023-11-19T02:11:59;14.10;99.90
26081;DHT22;13991;51.174;4.438;2023-11-19T02:14:26;14.10;99.90
26081;DHT22;13991;51.174;4.438;2023-11-19T02:16:52;14.00;99.90
26081;DHT22;13991;51.174;4.438;2023-11-19T02:19:21;13.90;99.90
26081;DHT22;13991;51.174;4.438;2023-11-19T02:21:47;14.00;99.90
26081;DHT22;13991;51.174;4.438;2023-11-19T02:24:14;14.00;99.90
26081;DHT22;13991;51.174;4.438;2023-11-19T02:29:31;14.00;99.90
26081;DHT22;13991;51.174;4.438;2023-11-19T02:31:57;13.90;99.90
26081;DHT22;13991;51.174;4.438;2023-11-19T02:34:23;13.90;99.90
26081;DHT22;13991;51.174;4.438;2023-11-19T02:36:48;13.90;99.90
26081;DHT22;13991;51.174;4.438;2023-11-19T02:39:15;14.00;99.90
26081;DHT22;13991;51.174;4.438;2023-11-19T02:41:47;14.00;99.90
26081;DHT22;13991;51.174;4.438;2023-11-19T02:44:12;13.90;99.90
26081;DHT22;13991;51.174;4.438;2023-11-19T02:46:39;13.90;99.90
26081;DHT22;13991;51.174;4.438;2023-11-19T02:49:07;13.90;99.90
26081;DHT22;13991;51.174;4.438;2023-11-19T02:51:33;13.80;99.90
26081;DHT22;13991;51.174;4.438;2023-11-19T02:54:00;13.80;99.90
26081;DHT22;13991;51.174;4.438;2023-11-19T02:56:26;13.70;99.90
26081;DHT22;13991;51.174;4.438;2023-11-19T02:58:52;13.70;99.90
26081;DHT22;13991;51.174;4.438;2023-11-19T03:01:24;13.70;99.90
26081;DHT22;13991;51.174;4.438;2023-11-19T03:03:59;13.70;99.90
26081;DHT22;13991;51.174;4.438;2023-11-19T03:06:27;13.60;99.90
26081;DHT22;13991;51.174;4.438;2023-11-19T03:08:55;13.60;99.90
26081;DHT22;13991;51.174;4.438;2023-11-19T03:11:21;13.60;99.90
26081;DHT22;13991;51.174;4.438;2023-11-19T03:13:47;13.60;99.90
26081;DHT22;13991;51.174;4.438;2023-11-19T03:16:12;13.60;99.90
26081;DHT22;13991;51.174;4.438;2023-11-19T03:18:38;13.50;99.90
26081;DHT22;13991;51.174;4.438;2023-11-19T03:21:06;13.50;99.90
26081;DHT22;13991;51.174;4.438;2023-11-19T03:23:33;13.50;99.90
26081;DHT22;13991;51.174;4.438;2023-11-19T03:25:59;13.60;99.90
26081;DHT22;13991;51.174;4.438;2023-11-19T03:28:29;13.60;99.90
26081;DHT22;13991;51.174;4.438;2023-11-19T03:30:54;13.60;99.90
26081;DHT22;13991;51.174;4.438;2023-11-19T03:33:20;13.70;99.90
26081;DHT22;13991;51.174;4.438;2023-11-19T03:35:46;13.70;99.90
26081;DHT22;13991;51.174;4.438;2023-11-19T03:38:12;13.60;99.90
26081;DHT22;13991;51.174;4.438;2023-11-19T03:40:38;13.50;99.90
26081;DHT22;13991;51.174;4.438;2023-11-19T03:43:04;13.40;99.90
26081;DHT22;13991;51.174;4.438;2023-11-19T03:45:30;13.50;99.90
26081;DHT22;13991;51.174;4.438;2023-11-19T03:47:56;13.50;99.90
26081;DHT22;13991;51.174;4.438;2023-11-19T03:50:22;13.50;99.90
26081;DHT22;13991;51.174;4.438;2023-11-19T03:52:48;13.40;99.90
26081;DHT22;13991;51.174;4.438;2023-11-19T03:55:13;13.40;99.90
26081;DHT22;13991;51.174;4.438;2023-11-19T03:57:39;13.50;99.90
26081;DHT22;13991;51.174;4.438;2023-11-19T04:00:05;13.40;99.90
26081;DHT22;13991;51.174;4.438;2023-11-19T04:02:40;13.40;99.90
26081;DHT22;13991;51.174;4.438;2023-11-19T04:05:06;13.50;99.90
26081;DHT22;13991;51.174;4.438;2023-11-19T04:07:32;13.50;99.90
26081;DHT22;13991;51.174;4.438;2023-11-19T04:09:58;13.60;99.90
26081;DHT22;13991;51.174;4.438;2023-11-19T04:12:24;13.70;99.90
26081;DHT22;13991;51.174;4.438;2023-11-19T04:14:50;13.60;99.90
26081;DHT22;13991;51.174;4.438;2023-11-19T04:17:15;13.50;99.90
26081;DHT22;13991;51.174;4.438;2023-11-19T04:19:41;13.50;99.90
26081;DHT22;13991;51.174;4.438;2023-11-19T04:22:07;13.50;99.90
26081;DHT22;13991;51.174;4.438;2023-11-19T04:24:34;13.40;99.90
26081;DHT22;13991;51.174;4.438;2023-11-19T04:27:00;13.20;99.90
26081;DHT22;13991;51.174;4.438;2023-11-19T04:29:26;13.30;99.90
26081;DHT22;13991;51.174;4.438;2023-11-19T04:31:51;13.20;99.90
26081;DHT22;13991;51.174;4.438;2023-11-19T04:34:17;13.20;99.90
26081;DHT22;13991;51.174;4.438;2023-11-19T04:36:43;13.20;99.90
26081;DHT22;13991;51.174;4.438;2023-11-19T04:39:09;13.20;99.90
26081;DHT22;13991;51.174;4.438;2023-11-19T04:41:51;13.30;99.90
26081;DHT22;13991;51.174;4.438;2023-11-19T04:44:20;13.20;99.90
26081;DHT22;13991;51.174;4.438;2023-11-19T04:46:45;13.10;99.90
26081;DHT22;13991;51.174;4.438;2023-11-19T04:49:12;13.00;99.90
26081;DHT22;13991;51.174;4.438;2023-11-19T04:51:40;13.00;99.90
26081;DHT22;13991;51.174;4.438;2023-11-19T04:54:06;13.10;99.90
26081;DHT22;13991;51.174;4.438;2023-11-19T04:56:34;13.10;99.90
26081;DHT22;13991;51.174;4.438;2023-11-19T04:59:01;13.00;99.90
26081;DHT22;13991;51.174;4.438;2023-11-19T05:01:27;12.90;99.90
26081;DHT22;13991;51.174;4.438;2023-11-19T05:03:53;13.00;99.90
26081;DHT22;13991;51.174;4.438;2023-11-19T05:06:19;12.80;99.90
26081;DHT22;13991;51.174;4.438;2023-11-19T05:08:45;12.80;99.90
26081;DHT22;13991;51.174;4.438;2023-11-19T05:11:11;12.90;99.90
26081;DHT22;13991;51.174;4.438;2023-11-19T05:13:43;12.90;99.90
26081;DHT22;13991;51.174;4.438;2023-11-19T05:16:10;12.80;99.90
26081;DHT22;13991;51.174;4.438;2023-11-19T05:18:36;12.60;99.90
26081;DHT22;13991;51.174;4.438;2023-11-19T05:21:01;12.60;99.90
26081;DHT22;13991;51.174;4.438;2023-11-19T05:23:27;12.60;99.90
26081;DHT22;13991;51.174;4.438;2023-11-19T05:25:52;12.70;99.90
26081;DHT22;13991;51.174;4.438;2023-11-19T05:28:18;12.60;99.90
26081;DHT22;13991;51.174;4.438;2023-11-19T05:30:44;12.70;99.90
26081;DHT22;13991;51.174;4.438;2023-11-19T05:33:10;12.70;99.90
26081;DHT22;13991;51.174;4.438;2023-11-19T05:35:36;12.70;99.90
26081;DHT22;13991;51.174;4.438;2023-11-19T05:38:02;12.60;99.90
26081;DHT22;13991;51.174;4.438;2023-11-19T05:40:28;12.50;99.90
26081;DHT22;13991;51.174;4.438;2023-11-19T05:42:53;12.50;99.90
26081;DHT22;13991;51.174;4.438;2023-11-19T05:45:19;12.60;99.90
26081;DHT22;13991;51.174;4.438;2023-11-19T05:47:44;12.50;99.90
26081;DHT22;13991;51.174;4.438;2023-11-19T05:50:10;12.60;99.90
26081;DHT22;13991;51.174;4.438;2023-11-19T05:52:36;12.50;99.90
26081;DHT22;13991;51.174;4.438;2023-11-19T05:55:02;12.50;99.90
26081;DHT22;13991;51.174;4.438;2023-11-19T05:57:37;12.50;99.90
26081;DHT22;13991;51.174;4.438;2023-11-19T06:00:03;12.50;99.90
26081;DHT22;13991;51.174;4.438;2023-11-19T06:02:33;12.50;99.90
26081;DHT22;13991;51.174;4.438;2023-11-19T06:04:58;12.60;99.90
26081;DHT22;13991;51.174;4.438;2023-11-19T06:07:24;12.60;99.90
26081;DHT22;13991;51.174;4.438;2023-11-19T06:09:50;12.60;99.90
26081;DHT22;13991;51.174;4.438;2023-11-19T06:12:16;12.60;99.90
26081;DHT22;13991;51.174;4.438;2023-11-19T06:14:41;12.60;99.90
26081;DHT22;13991;51.174;4.438;2023-11-19T06:17:07;12.60;99.90
26081;DHT22;13991;51.174;4.438;2023-11-19T06:19:34;12.60;99.90
26081;DHT22;13991;51.174;4.438;2023-11-19T06:21:59;12.60;99.90
26081;DHT22;13991;51.174;4.438;2023-11-19T06:24:25;12.70;99.90
26081;DHT22;13991;51.174;4.438;2023-11-19T06:26:51;12.70;99.90
26081;DHT22;13991;51.174;4.438;2023-11-19T06:29:16;12.70;99.90
26081;DHT22;13991;51.174;4.438;2023-11-19T06:31:45;12.70;99.90
26081;DHT22;13991;51.174;4.438;2023-11-19T06:34:10;12.70;99.90
26081;DHT22;13991;51.174;4.438;2023-11-19T06:36:36;12.60;99.90
26081;DHT22;13991;51.174;4.438;2023-11-19T06:39:02;12.50;99.90
26081;DHT22;13991;51.174;4.438;2023-11-19T06:41:28;12.50;99.90
26081;DHT22;13991;51.174;4.438;2023-11-19T06:43:54;12.60;99.90
26081;DHT22;13991;51.174;4.438;2023-11-19T06:46:20;12.50;99.90
26081;DHT22;13991;51.174;4.438;2023-11-19T06:48:46;12.50;99.90
26081;DHT22;13991;51.174;4.438;2023-11-19T06:51:12;12.50;99.90
26081;DHT22;13991;51.174;4.438;2023-11-19T06:53:38;12.50;99.90
26081;DHT22;13991;51.174;4.438;2023-11-19T06:56:06;12.60;99.90
26081;DHT22;13991;51.174;4.438;2023-11-19T06:58:42;12.60;99.90
26081;DHT22;13991;51.174;4.438;2023-11-19T07:01:08;12.50;99.90
26081;DHT22;13991;51.174;4.438;2023-11-19T07:03:35;12.60;99.90
26081;DHT22;13991;51.174;4.438;2023-11-19T07:06:00;12.40;99.90
26081;DHT22;13991;51.174;4.438;2023-11-19T07:08:26;12.40;99.90
26081;DHT22;13991;51.174;4.438;2023-11-19T07:10:54;12.40;99.90
26081;DHT22;13991;51.174;4.438;2023-11-19T07:13:20;12.30;99.90
26081;DHT22;13991;51.174;4.438;2023-11-19T07:15:46;12.40;99.90
26081;DHT22;13991;51.174;4.438;2023-11-19T07:18:11;12.40;99.90
26081;DHT22;13991;51.174;4.438;2023-11-19T07:20:37;12.30;99.90
26081;DHT22;13991;51.174;4.438;2023-11-19T07:23:04;12.40;99.90
26081;DHT22;13991;51.174;4.438;2023-11-19T07:25:29;12.30;99.90
26081;DHT22;13991;51.174;4.438;2023-11-19T07:27:55;12.40;99.90
26081;DHT22;13991;51.174;4.438;2023-11-19T07:30:21;12.40;99.90
26081;DHT22;13991;51.174;4.438;2023-11-19T07:32:47;12.40;99.90
26081;DHT22;13991;51.174;4.438;2023-11-19T07:35:14;12.40;99.90
26081;DHT22;13991;51.174;4.438;2023-11-19T07:37:41;12.50;99.90
26081;DHT22;13991;51.174;4.438;2023-11-19T07:40:08;12.40;99.90
26081;DHT22;13991;51.174;4.438;2023-11-19T07:42:33;12.40;99.90
26081;DHT22;13991;51.174;4.438;2023-11-19T07:44:59;12.50;99.90
26081;DHT22;13991;51.174;4.438;2023-11-19T07:47:25;12.50;99.90
26081;DHT22;13991;51.174;4.438;2023-11-19T07:49:51;12.70;99.90
26081;DHT22;13991;51.174;4.438;2023-11-19T07:52:16;12.70;99.90
26081;DHT22;13991;51.174;4.438;2023-11-19T07:54:42;12.70;99.90
26081;DHT22;13991;51.174;4.438;2023-11-19T07:57:08;12.80;99.90
26081;DHT22;13991;51.174;4.438;2023-11-19T07:59:33;12.80;99.90
26081;DHT22;13991;51.174;4.438;2023-11-19T08:01:59;12.80;99.90
26081;DHT22;13991;51.174;4.438;2023-11-19T08:04:25;12.80;99.90
26081;DHT22;13991;51.174;4.438;2023-11-19T08:06:50;12.70;99.90
26081;DHT22;13991;51.174;4.438;2023-11-19T08:09:17;12.80;99.90
26081;DHT22;13991;51.174;4.438;2023-11-19T08:11:43;12.80;99.90
26081;DHT22;13991;51.174;4.438;2023-11-19T08:14:09;12.90;99.90
26081;DHT22;13991;51.174;4.438;2023-11-19T08:16:35;12.90;99.90
26081;DHT22;13991;51.174;4.438;2023-11-19T08:19:01;12.90;99.90
26081;DHT22;13991;51.174;4.438;2023-11-19T08:21:28;12.90;99.90
26081;DHT22;13991;51.174;4.438;2023-11-19T08:23:54;13.00;99.90
26081;DHT22;13991;51.174;4.438;2023-11-19T08:26:20;13.00;99.90
26081;DHT22;13991;51.174;4.438;2023-11-19T08:28:45;13.10;99.90
26081;DHT22;13991;51.174;4.438;2023-11-19T08:31:11;13.10;99.90
26081;DHT22;13991;51.174;4.438;2023-11-19T08:33:37;13.10;99.90
26081;DHT22;13991;51.174;4.438;2023-11-19T08:36:03;13.10;99.90
26081;DHT22;13991;51.174;4.438;2023-11-19T08:38:30;13.10;99.90
26081;DHT22;13991;51.174;4.438;2023-11-19T08:40:55;13.20;99.90
26081;DHT22;13991;51.174;4.438;2023-11-19T08:43:28;13.10;99.90
26081;DHT22;13991;51.174;4.438;2023-11-19T08:45:54;13.10;99.90
26081;DHT22;13991;51.174;4.438;2023-11-19T08:48:20;13.20;99.90
26081;DHT22;13991;51.174;4.438;2023-11-19T08:50:45;13.40;99.90
26081;DHT22;13991;51.174;4.438;2023-11-19T08:53:11;13.80;99.90
26081;DHT22;13991;51.174;4.438;2023-11-19T08:55:37;13.80;99.90
26081;DHT22;13991;51.174;4.438;2023-11-19T08:58:02;13.90;99.90
26081;DHT22;13991;51.174;4.438;2023-11-19T09:00:28;13.90;99.90
26081;DHT22;13991;51.174;4.438;2023-11-19T09:02:55;13.80;99.90
26081;DHT22;13991;51.174;4.438;2023-11-19T09:05:21;13.70;99.90
26081;DHT22;13991;51.174;4.438;2023-11-19T09:07:46;13.70;99.90
26081;DHT22;13991;51.174;4.438;2023-11-19T09:10:12;13.70;99.90
26081;DHT22;13991;51.174;4.438;2023-11-19T09:12:37;13.50;99.90
26081;DHT22;13991;51.174;4.438;2023-11-19T09:15:03;13.50;99.90
26081;DHT22;13991;51.174;4.438;2023-11-19T09:17:29;13.60;99.90
26081;DHT22;13991;51.174;4.438;2023-11-19T09:19:55;13.70;99.90
26081;DHT22;13991;51.174;4.438;2023-11-19T09:22:21;13.70;99.90
26081;DHT22;13991;51.174;4.438;2023-11-19T09:24:46;13.70;99.90
26081;DHT22;13991;51.174;4.438;2023-11-19T09:27:13;13.70;99.90
26081;DHT22;13991;51.174;4.438;2023-11-19T09:29:39;13.70;99.90
26081;DHT22;13991;51.174;4.438;2023-11-19T09:32:05;13.80;99.90
26081;DHT22;13991;51.174;4.438;2023-11-19T09:34:31;13.90;99.90
26081;DHT22;13991;51.174;4.438;2023-11-19T09:36:57;13.70;99.90
26081;DHT22;13991;51.174;4.438;2023-11-19T09:39:23;13.80;99.90
26081;DHT22;13991;51.174;4.438;2023-11-19T09:41:51;13.80;99.90
26081;DHT22;13991;51.174;4.438;2023-11-19T09:44:17;13.90;99.90
26081;DHT22;13991;51.174;4.438;2023-11-19T09:46:44;13.90;99.90
26081;DHT22;13991;51.174;4.438;2023-11-19T09:49:10;14.00;99.90
26081;DHT22;13991;51.174;4.438;2023-11-19T09:51:37;13.90;99.90
26081;DHT22;13991;51.174;4.438;2023-11-19T09:54:03;13.90;99.90
26081;DHT22;13991;51.174;4.438;2023-11-19T09:56:29;13.90;99.90
26081;DHT22;13991;51.174;4.438;2023-11-19T09:58:55;14.00;99.90
26081;DHT22;13991;51.174;4.438;2023-11-19T10:01:21;14.00;99.90
26081;DHT22;13991;51.174;4.438;2023-11-19T10:03:47;14.10;99.90
26081;DHT22;13991;51.174;4.438;2023-11-19T10:06:14;14.20;99.90
26081;DHT22;13991;51.174;4.438;2023-11-19T10:08:42;14.20;99.90
26081;DHT22;13991;51.174;4.438;2023-11-19T10:11:09;14.10;99.90
26081;DHT22;13991;51.174;4.438;2023-11-19T10:13:37;14.10;99.90
26081;DHT22;13991;51.174;4.438;2023-11-19T10:16:10;14.10;99.90
26081;DHT22;13991;51.174;4.438;2023-11-19T10:18:37;14.00;99.90
26081;DHT22;13991;51.174;4.438;2023-11-19T10:21:04;14.20;99.90
26081;DHT22;13991;51.174;4.438;2023-11-19T10:23:31;14.30;99.90
26081;DHT22;13991;51.174;4.438;2023-11-19T10:26:03;14.60;99.90
26081;DHT22;13991;51.174;4.438;2023-11-19T10:28:39;14.60;99.90
26081;DHT22;13991;51.174;4.438;2023-11-19T10:31:06;14.60;99.90
26081;DHT22;13991;51.174;4.438;2023-11-19T10:33:32;14.70;99.90
26081;DHT22;13991;51.174;4.438;2023-11-19T10:35:58;14.70;99.90
26081;DHT22;13991;51.174;4.438;2023-11-19T10:38:25;14.50;99.90
26081;DHT22;13991;51.174;4.438;2023-11-19T10:40:52;14.60;99.90
26081;DHT22;13991;51.174;4.438;2023-11-19T10:43:18;14.60;99.90
26081;DHT22;13991;51.174;4.438;2023-11-19T10:45:45;14.60;99.90
26081;DHT22;13991;51.174;4.438;2023-11-19T10:48:11;14.60;99.90
26081;DHT22;13991;51.174;4.438;2023-11-19T10:50:39;14.60;99.90
26081;DHT22;13991;51.174;4.438;2023-11-19T10:53:06;14.50;99.90
26081;DHT22;13991;51.174;4.438;2023-11-19T10:55:35;14.60;99.90
26081;DHT22;13991;51.174;4.438;2023-11-19T10:58:04;14.80;99.90
26081;DHT22;13991;51.174;4.438;2023-11-19T11:00:41;15.00;99.90
26081;DHT22;13991;51.174;4.438;2023-11-19T11:03:15;15.20;99.90
26081;DHT22;13991;51.174;4.438;2023-11-19T11:05:41;15.20;99.90
26081;DHT22;13991;51.174;4.438;2023-11-19T11:08:08;15.10;99.90
26081;DHT22;13991;51.174;4.438;2023-11-19T11:10:40;15.10;99.90
26081;DHT22;13991;51.174;4.438;2023-11-19T11:13:08;14.80;99.90
26081;DHT22;13991;51.174;4.438;2023-11-19T11:15:34;14.60;99.90
26081;DHT22;13991;51.174;4.438;2023-11-19T11:18:01;14.40;99.90
26081;DHT22;13991;51.174;4.438;2023-11-19T11:20:29;14.60;99.90
26081;DHT22;13991;51.174;4.438;2023-11-19T11:28:56;14.70;99.90
26081;DHT22;13991;51.174;4.438;2023-11-19T11:39:34;15.00;99.90
26081;DHT22;13991;51.174;4.438;2023-11-19T11:44:59;14.80;99.90
26081;DHT22;13991;51.174;4.438;2023-11-19T11:50:17;15.00;99.90
26081;DHT22;13991;51.174;4.438;2023-11-19T11:57:57;15.10;99.90
26081;DHT22;13991;51.174;4.438;2023-11-19T12:00:32;15.20;99.90
26081;DHT22;13991;51.174;4.438;2023-11-19T12:03:02;15.30;99.90
26081;DHT22;13991;51.174;4.438;2023-11-19T12:05:29;15.20;99.90
26081;DHT22;13991;51.174;4.438;2023-11-19T12:08:00;15.10;99.90
26081;DHT22;13991;51.174;4.438;2023-11-19T12:10:29;15.00;99.90
26081;DHT22;13991;51.174;4.438;2023-11-19T12:12:59;14.90;99.90
26081;DHT22;13991;51.174;4.438;2023-11-19T12:15:28;14.80;99.90
26081;DHT22;13991;51.174;4.438;2023-11-19T12:17:54;14.60;99.90
26081;DHT22;13991;51.174;4.438;2023-11-19T12:20:23;14.40;99.90
26081;DHT22;13991;51.174;4.438;2023-11-19T12:22:49;14.50;99.90
26081;DHT22;13991;51.174;4.438;2023-11-19T12:25:16;14.40;99.90
26081;DHT22;13991;51.174;4.438;2023-11-19T12:27:44;14.30;99.90
26081;DHT22;13991;51.174;4.438;2023-11-19T12:30:10;14.20;99.90
26081;DHT22;13991;51.174;4.438;2023-11-19T12:32:46;14.20;99.90
26081;DHT22;13991;51.174;4.438;2023-11-19T12:35:12;14.10;99.90
26081;DHT22;13991;51.174;4.438;2023-11-19T12:37:45;14.00;99.90
26081;DHT22;13991;51.174;4.438;2023-11-19T12:40:16;14.10;99.90
26081;DHT22;13991;51.174;4.438;2023-11-19T12:42:48;13.90;99.90
26081;DHT22;13991;51.174;4.438;2023-11-19T12:45:14;14.00;99.90
26081;DHT22;13991;51.174;4.438;2023-11-19T12:47:42;13.80;99.90
26081;DHT22;13991;51.174;4.438;2023-11-19T12:50:09;13.70;99.90
26081;DHT22;13991;51.174;4.438;2023-11-19T12:52:36;13.80;99.90
26081;DHT22;13991;51.174;4.438;2023-11-19T12:55:05;13.90;99.90
26081;DHT22;13991;51.174;4.438;2023-11-19T12:57:48;14.10;99.90
26081;DHT22;13991;51.174;4.438;2023-11-19T13:00:21;14.00;99.90
26081;DHT22;13991;51.174;4.438;2023-11-19T13:02:52;14.10;99.90
26081;DHT22;13991;51.174;4.438;2023-11-19T13:05:32;14.40;99.90
26081;DHT22;13991;51.174;4.438;2023-11-19T13:08:08;14.60;99.90
26081;DHT22;13991;51.174;4.438;2023-11-19T13:10:55;14.60;99.90
26081;DHT22;13991;51.174;4.438;2023-11-19T13:13:21;14.50;99.90
26081;DHT22;13991;51.174;4.438;2023-11-19T13:15:46;14.30;99.90
26081;DHT22;13991;51.174;4.438;2023-11-19T13:18:13;14.30;99.90
26081;DHT22;13991;51.174;4.438;2023-11-19T13:20:41;14.30;99.90
26081;DHT22;13991;51.174;4.438;2023-11-19T13:23:07;14.40;99.90
26081;DHT22;13991;51.174;4.438;2023-11-19T13:25:33;14.30;99.90
26081;DHT22;13991;51.174;4.438;2023-11-19T13:27:59;14.20;99.90
26081;DHT22;13991;51.174;4.438;2023-11-19T13:30:25;13.90;99.90
26081;DHT22;13991;51.174;4.438;2023-11-19T13:32:52;14.00;99.90
26081;DHT22;13991;51.174;4.438;2023-11-19T13:35:18;14.20;99.90
26081;DHT22;13991;51.174;4.438;2023-11-19T13:37:45;14.30;99.90
26081;DHT22;13991;51.174;4.438;2023-11-19T13:40:11;14.30;99.90
26081;DHT22;13991;51.174;4.438;2023-11-19T13:42:42;14.40;99.90
26081;DHT22;13991;51.174;4.438;2023-11-19T13:45:12;14.30;99.90
26081;DHT22;13991;51.174;4.438;2023-11-19T13:47:45;14.40;99.90
26081;DHT22;13991;51.174;4.438;2023-11-19T13:50:15;14.30;99.90
26081;DHT22;13991;51.174;4.438;2023-11-19T13:52:45;14.30;99.90
26081;DHT22;13991;51.174;4.438;2023-11-19T13:55:13;14.40;99.90
26081;DHT22;13991;51.174;4.438;2023-11-19T13:57:40;14.40;99.90
26081;DHT22;13991;51.174;4.438;2023-11-19T14:00:10;14.50;99.90
26081;DHT22;13991;51.174;4.438;2023-11-19T14:02:39;14.30;99.90
26081;DHT22;13991;51.174;4.438;2023-11-19T14:05:06;14.40;99.90
26081;DHT22;13991;51.174;4.438;2023-11-19T14:07:32;14.50;99.90
26081;DHT22;13991;51.174;4.438;2023-11-19T14:09:58;14.40;99.90
26081;DHT22;13991;51.174;4.438;2023-11-19T14:12:24;14.60;99.90
26081;DHT22;13991;51.174;4.438;2023-11-19T14:14:49;14.50;99.90
26081;DHT22;13991;51.174;4.438;2023-11-19T14:17:15;14.60;99.90
26081;DHT22;13991;51.174;4.438;2023-11-19T14:19:42;14.60;99.90
26081;DHT22;13991;51.174;4.438;2023-11-19T14:22:08;14.60;99.90
26081;DHT22;13991;51.174;4.438;2023-11-19T14:24:34;14.50;99.90
26081;DHT22;13991;51.174;4.438;2023-11-19T14:27:00;14.40;99.90
26081;DHT22;13991;51.174;4.438;2023-11-19T14:29:26;14.20;99.90
26081;DHT22;13991;51.174;4.438;2023-11-19T14:31:53;14.20;99.90
26081;DHT22;13991;51.174;4.438;2023-11-19T14:34:22;14.20;99.90
26081;DHT22;13991;51.174;4.438;2023-11-19T14:36:48;14.20;99.90
26081;DHT22;13991;51.174;4.438;2023-11-19T14:39:14;14.20;99.90
26081;DHT22;13991;51.174;4.438;2023-11-19T14:41:40;14.30;99.90
26081;DHT22;13991;51.174;4.438;2023-11-19T14:44:06;14.20;99.90
26081;DHT22;13991;51.174;4.438;2023-11-19T14:46:32;14.20;99.90
26081;DHT22;13991;51.174;4.438;2023-11-19T14:48:57;14.00;99.90
26081;DHT22;13991;51.174;4.438;2023-11-19T14:51:23;13.90;99.90
26081;DHT22;13991;51.174;4.438;2023-11-19T14:53:48;13.80;99.90
26081;DHT22;13991;51.174;4.438;2023-11-19T14:56:14;13.70;99.90
26081;DHT22;13991;51.174;4.438;2023-11-19T14:58:40;13.70;99.90
26081;DHT22;13991;51.174;4.438;2023-11-19T15:01:06;13.70;99.90
26081;DHT22;13991;51.174;4.438;2023-11-19T15:03:33;13.70;99.90
26081;DHT22;13991;51.174;4.438;2023-11-19T15:05:58;13.70;99.90
26081;DHT22;13991;51.174;4.438;2023-11-19T15:08:25;13.80;99.90
26081;DHT22;13991;51.174;4.438;2023-11-19T15:10:50;14.00;99.90
26081;DHT22;13991;51.174;4.438;2023-11-19T15:13:16;13.70;99.90
26081;DHT22;13991;51.174;4.438;2023-11-19T15:15:42;13.60;99.90
26081;DHT22;13991;51.174;4.438;2023-11-19T15:18:07;13.50;99.90
26081;DHT22;13991;51.174;4.438;2023-11-19T15:20:35;13.60;99.90
26081;DHT22;13991;51.174;4.438;2023-11-19T15:23:01;13.50;99.90
26081;DHT22;13991;51.174;4.438;2023-11-19T15:25:27;13.60;99.90
26081;DHT22;13991;51.174;4.438;2023-11-19T15:27:53;13.70;99.90
26081;DHT22;13991;51.174;4.438;2023-11-19T15:30:19;13.70;99.90
26081;DHT22;13991;51.174;4.438;2023-11-19T15:32:44;13.70;99.90
26081;DHT22;13991;51.174;4.438;2023-11-19T15:35:10;13.70;99.90
26081;DHT22;13991;51.174;4.438;2023-11-19T15:37:37;13.70;99.90
26081;DHT22;13991;51.174;4.438;2023-11-19T15:40:06;13.80;99.90
26081;DHT22;13991;51.174;4.438;2023-11-19T15:42:34;13.80;99.90
26081;DHT22;13991;51.174;4.438;2023-11-19T15:45:00;13.70;99.90
26081;DHT22;13991;51.174;4.438;2023-11-19T15:47:25;13.70;99.90
26081;DHT22;13991;51.174;4.438;2023-11-19T15:49:51;13.60;99.90
26081;DHT22;13991;51.174;4.438;2023-11-19T15:52:17;13.70;99.90
26081;DHT22;13991;51.174;4.438;2023-11-19T15:54:42;13.70;99.90